Time;durP1;ratioP1;P1;durP2;ratioP2;P2;SDS_P1;SDS_P2;PMS_P1;PMS_P2;Temp;Humidity;BMP_temperature;BMP_pressure;BME280_temperature;BME280_humidity;BME280_pressure;Samples;Min_cycle;Max_cycle;Signal;HPM_P1;HPM_P2
2022/07/06 00:00:54;;;;;;;;;;;;;;;22.43;27.10;97774.16;4994019;28;1391;-84
2022/07/06 00:03:20;;;;;;;;;;;;;;;22.50;26.91;97773.91;4995171;28;811;-84
2022/07/06 00:05:45;;;;;;;;;;;;;;;22.51;27.18;97781.97;4975364;28;1916;-84
2022/07/06 00:08:11;;;;;;;;;;;;;;;22.40;27.23;97787.19;4961336;28;871;-84
2022/07/06 00:10:36;;;;;;;;;;;;;;;22.51;27.25;97781.97;4984191;28;845;-85
2022/07/06 00:13:01;;;;;;;;;;;;;;;22.32;27.05;97777.34;4995204;28;804;-84
2022/07/06 00:15:27;;;;;;;;;;;;;;;22.44;27.24;97775.75;5006702;28;1338;-84
2022/07/06 00:17:52;;;;;;;;;;;;;;;22.69;26.80;97792.72;4998355;28;892;-85
2022/07/06 00:20:18;;;;;;;;;;;;;;;22.65;26.72;97782.75;5014293;28;864;-84
2022/07/06 00:22:43;;;;;;;;;;;;;;;22.55;26.99;97781.84;5014312;28;978;-83
2022/07/06 00:25:09;;;;;;;;;;;;;;;22.46;27.14;97778.91;5014575;28;1002;-84
2022/07/06 00:27:34;;;;;;;;;;;;;;;22.61;26.98;97780.00;4994436;28;1902;-84
2022/07/06 00:29:59;;;;;;;;;;;;;;;22.54;26.85;97785.94;4946861;28;1423;-84
2022/07/06 00:32:27;;;;;;;;;;;;;;;22.62;26.89;97784.44;4927065;29;1119;-84
2022/07/06 00:34:52;;;;;;;;;;;;;;;22.38;27.10;97774.72;4959835;29;1172;-84
2022/07/06 00:37:18;;;;;;;;;;;;;;;22.49;27.02;97781.63;4940400;29;1278;-84
2022/07/06 00:39:43;;;;;;;;;;;;;;;22.54;26.94;97766.09;4902391;29;879;-85
2022/07/06 00:42:09;;;;;;;;;;;;;;;22.48;26.94;97765.06;4922786;29;1115;-84
2022/07/06 00:44:35;;;;;;;;;;;;;;;22.29;27.38;97767.72;4909745;29;1322;-84
2022/07/06 00:47:00;;;;;;;;;;;;;;;22.19;27.65;97766.03;4901853;29;1952;-84
2022/07/06 00:52:10;;;;;;;;;;;;;;;22.31;27.25;97762.38;4851507;29;1603;-84
2022/07/06 00:54:35;;;;;;;;;;;;;;;22.39;26.99;97762.16;4867818;29;1127;-84
2022/07/06 00:57:01;;;;;;;;;;;;;;;22.42;26.91;97761.22;4882814;29;1569;-84
2022/07/06 00:59:27;;;;;;;;;;;;;;;22.40;27.09;97760.91;4875759;29;872;-85
2022/07/06 01:01:52;;;;;;;;;;;;;;;22.44;27.10;97758.75;4861474;29;879;-84
2022/07/06 01:04:18;;;;;;;;;;;;;;;22.56;26.69;97761.53;4848741;29;1400;-84
2022/07/06 01:06:44;;;;;;;;;;;;;;;22.39;27.12;97762.16;4883054;29;1902;-85
2022/07/06 01:09:10;;;;;;;;;;;;;;;22.40;26.96;97756.03;4867442;29;974;-84
2022/07/06 01:11:35;;;;;;;;;;;;;;;22.45;26.81;97757.50;4906811;29;1386;-84
2022/07/06 01:14:01;;;;;;;;;;;;;;;22.48;26.86;97753.72;4891749;29;905;-84
2022/07/06 01:16:26;;;;;;;;;;;;;;;22.52;27.01;97754.41;4917310;29;993;-84
2022/07/06 01:18:52;;;;;;;;;;;;;;;22.45;27.00;97754.66;4883334;29;1268;-84
2022/07/06 01:21:17;;;;;;;;;;;;;;;22.30;27.02;97746.63;4886101;29;796;-84
2022/07/06 01:23:43;;;;;;;;;;;;;;;22.38;27.15;97752.03;4882800;29;938;-84
2022/07/06 01:26:19;;;;;;;;;;;;;;;22.31;26.98;97753.09;4901002;29;1972;-83
2022/07/06 01:28:45;;;;;;;;;;;;;;;22.39;27.18;97751.59;4901831;29;850;-84
2022/07/06 01:31:13;;;;;;;;;;;;;;;22.53;26.86;97751.09;4920386;29;1127;-85
2022/07/06 01:33:39;;;;;;;;;;;;;;;22.42;26.97;97749.88;4920322;29;958;-84
2022/07/06 01:36:04;;;;;;;;;;;;;;;22.42;26.73;97738.53;4920471;29;1116;-85
2022/07/06 01:38:30;;;;;;;;;;;;;;;22.27;27.20;97744.69;4920292;29;921;-84
2022/07/06 01:40:55;;;;;;;;;;;;;;;22.29;26.86;97742.22;4919473;29;1355;-82
2022/07/06 01:43:20;;;;;;;;;;;;;;;22.49;26.67;97744.00;4878323;29;1445;-84
2022/07/06 01:45:46;;;;;;;;;;;;;;;22.44;26.63;97742.53;4885841;29;1183;-83
2022/07/06 01:48:12;;;;;;;;;;;;;;;22.46;27.00;97745.69;4898465;29;887;-84
2022/07/06 01:50:38;;;;;;;;;;;;;;;22.40;26.65;97739.00;4882438;29;993;-84
2022/07/06 01:53:03;;;;;;;;;;;;;;;22.29;26.82;97742.22;4882173;29;1324;-84
2022/07/06 01:55:29;;;;;;;;;;;;;;;22.47;26.69;97746.47;4900532;29;1349;-84
2022/07/06 01:57:55;;;;;;;;;;;;;;;22.44;26.75;97739.69;4919703;29;1239;-85
2022/07/06 02:00:20;;;;;;;;;;;;;;;22.30;26.84;97743.78;4900831;29;1208;-84
2022/07/06 02:02:49;;;;;;;;;;;;;;;22.26;26.99;97748.78;4872601;29;1256;-84
2022/07/06 02:05:17;;;;;;;;;;;;;;;22.30;26.98;97737.34;4900426;29;896;-85
2022/07/06 02:07:43;;;;;;;;;;;;;;;22.41;26.80;97749.09;4900801;29;1990;-85
2022/07/06 02:10:10;;;;;;;;;;;;;;;22.48;26.71;97742.38;4885456;29;1314;-83
2022/07/06 02:12:36;;;;;;;;;;;;;;;22.30;26.90;97732.44;4835080;29;1136;-84
2022/07/06 02:15:01;;;;;;;;;;;;;;;22.24;27.01;97739.16;4875979;29;1240;-82
2022/07/06 02:17:27;;;;;;;;;;;;;;;22.18;26.89;97736.09;4860534;29;1154;-85
2022/07/06 02:19:52;;;;;;;;;;;;;;;22.27;26.74;97743.91;4830637;29;932;-85
2022/07/06 02:22:17;;;;;;;;;;;;;;;22.48;26.69;97737.50;4883921;29;1299;-84
2022/07/06 02:24:43;;;;;;;;;;;;;;;22.31;26.65;97742.53;4900889;29;867;-84
2022/07/06 02:27:09;;;;;;;;;;;;;;;22.35;26.88;97734.72;4915517;29;1977;-85
2022/07/06 02:29:35;;;;;;;;;;;;;;;22.43;26.82;97740.13;4919760;29;1137;-85
2022/07/06 02:32:01;;;;;;;;;;;;;;;22.32;26.71;97735.59;4952084;28;1515;-84
2022/07/06 02:34:27;;;;;;;;;;;;;;;22.34;26.86;97735.97;4962247;28;1263;-84
2022/07/06 02:36:54;;;;;;;;;;;;;;;22.47;26.75;97740.81;4979702;28;1251;-83
2022/07/06 02:39:20;;;;;;;;;;;;;;;22.49;26.84;97738.31;4938063;29;1114;-84
2022/07/06 02:41:46;;;;;;;;;;;;;;;22.43;26.89;97735.25;4932505;29;1333;-85
2022/07/06 02:44:12;;;;;;;;;;;;;;;22.39;26.74;97736.63;4937913;29;985;-85
2022/07/06 02:46:38;;;;;;;;;;;;;;;22.43;26.64;97731.63;4922277;29;1982;-84
2022/07/06 02:49:04;;;;;;;;;;;;;;;22.28;26.91;97729.28;4922304;29;1113;-84
2022/07/06 02:51:30;;;;;;;;;;;;;;;22.21;27.24;97726.69;4921786;29;1108;-84
2022/07/06 02:53:55;;;;;;;;;;;;;;;22.27;27.02;97713.50;4890484;29;1135;-84
2022/07/06 02:56:21;;;;;;;;;;;;;;;22.09;27.36;97721.81;4893237;29;1328;-84
2022/07/06 02:58:47;;;;;;;;;;;;;;;22.42;26.57;97721.53;4881090;29;1172;-84
2022/07/06 03:01:13;;;;;;;;;;;;;;;22.40;26.87;97715.53;4880876;29;1363;-84
2022/07/06 03:03:39;;;;;;;;;;;;;;;22.27;27.19;97719.19;4881091;29;932;-84
2022/07/06 03:06:05;;;;;;;;;;;;;;;22.20;26.96;97722.25;4914350;29;1928;-84
2022/07/06 03:08:34;;;;;;;;;;;;;;;22.26;26.76;97714.75;4918652;29;1133;-84
2022/07/06 03:10:59;;;;;;;;;;;;;;;22.53;26.47;97710.63;4921227;29;908;-85
2022/07/06 03:13:26;;;;;;;;;;;;;;;22.30;27.02;97714.66;4921744;29;1428;-84
2022/07/06 03:15:52;;;;;;;;;;;;;;;22.44;26.49;97719.84;4880454;29;1617;-85
2022/07/06 03:18:18;;;;;;;;;;;;;;;22.43;26.81;97709.72;4883290;29;1205;-85
2022/07/06 03:20:44;;;;;;;;;;;;;;;22.41;26.68;97719.97;4918922;29;1262;-84
2022/07/06 03:23:12;;;;;;;;;;;;;;;22.40;26.75;97719.16;4918495;29;1165;-84
2022/07/06 03:25:38;;;;;;;;;;;;;;;22.49;26.53;97704.28;4914780;29;1140;-85
2022/07/06 03:28:04;;;;;;;;;;;;;;;22.48;26.86;97714.03;4918158;29;1911;-84
2022/07/06 03:30:29;;;;;;;;;;;;;;;22.27;26.87;97716.34;4899100;29;914;-84
2022/07/06 03:32:56;;;;;;;;;;;;;;;22.39;26.89;97722.47;4899739;29;1217;-84
2022/07/06 03:35:23;;;;;;;;;;;;;;;22.38;26.78;97723.69;4899444;29;920;-84
2022/07/06 03:37:50;;;;;;;;;;;;;;;22.36;26.99;97719.28;4883964;29;1121;-85
2022/07/06 03:40:16;;;;;;;;;;;;;;;22.40;26.85;97718.38;4933504;29;1104;-84
2022/07/06 03:42:44;;;;;;;;;;;;;;;22.44;27.01;97724.72;4914822;29;1544;-85
2022/07/06 03:48:45;;;;;;;;;;;;;;;22.22;27.20;97725.41;4861916;29;877;-85
2022/07/06 03:51:12;;;;;;;;;;;;;;;22.28;27.25;97720.78;4862167;29;910;-85
2022/07/06 03:53:38;;;;;;;;;;;;;;;22.49;26.85;97721.31;4875817;29;1300;-84
2022/07/06 03:58:47;;;;;;;;;;;;;;;22.22;27.51;97727.47;4885297;29;1298;-84
2022/07/06 04:01:13;;;;;;;;;;;;;;;22.47;27.18;97732.28;4880159;29;1296;-85
2022/07/06 04:03:39;;;;;;;;;;;;;;;22.19;27.35;97729.19;4896548;29;979;-85
2022/07/06 04:06:04;;;;;;;;;;;;;;;22.52;27.06;97726.03;4884133;29;1993;-85
2022/07/06 04:08:31;;;;;;;;;;;;;;;22.44;26.97;97730.38;4858729;29;1242;-84
2022/07/06 04:10:58;;;;;;;;;;;;;;;22.45;27.06;97726.31;4840305;29;1154;-85
2022/07/06 04:13:25;;;;;;;;;;;;;;;22.43;27.13;97723.13;4846905;29;928;-85
2022/07/06 04:15:51;;;;;;;;;;;;;;;22.45;27.32;97720.63;4815012;29;1420;-84
2022/07/06 04:18:17;;;;;;;;;;;;;;;22.27;27.50;97716.34;4828391;29;1190;-84
2022/07/06 04:20:50;;;;;;;;;;;;;;;22.36;27.35;97718.50;4846837;29;1044;-84
2022/07/06 04:23:17;;;;;;;;;;;;;;;22.44;27.48;97716.22;4846834;29;1229;-85
2022/07/06 04:25:42;;;;;;;;;;;;;;;22.41;27.36;97715.06;4811292;29;885;-85
2022/07/06 04:28:08;;;;;;;;;;;;;;;22.60;27.11;97716.06;4793330;29;1980;-84
2022/07/06 04:30:35;;;;;;;;;;;;;;;22.53;27.27;97716.28;4813535;29;1131;-84
2022/07/06 04:33:02;;;;;;;;;;;;;;;22.60;27.11;97722.50;4776696;29;1112;-85
2022/07/06 04:35:30;;;;;;;;;;;;;;;22.48;27.74;97719.69;4770874;30;1108;-85
2022/07/06 04:37:57;;;;;;;;;;;;;;;22.53;27.25;97716.28;4801051;29;1324;-84
2022/07/06 04:40:23;;;;;;;;;;;;;;;22.70;27.17;97717.72;4822085;29;1226;-84
2022/07/06 04:42:51;;;;;;;;;;;;;;;22.54;27.65;97724.34;4842747;29;1347;-85
2022/07/06 04:45:18;;;;;;;;;;;;;;;22.56;27.71;97715.38;4842392;29;1212;-85
2022/07/06 04:47:44;;;;;;;;;;;;;;;22.39;27.75;97716.78;4842927;29;1985;-85
2022/07/06 04:50:10;;;;;;;;;;;;;;;22.61;27.73;97723.31;4874734;29;1288;-85
2022/07/06 04:52:36;;;;;;;;;;;;;;;22.49;27.84;97709.97;4867264;29;1232;-85
2022/07/06 04:55:04;;;;;;;;;;;;;;;22.54;27.85;97712.22;4901744;29;1121;-85
2022/07/06 04:57:29;;;;;;;;;;;;;;;22.59;27.68;97714.47;4913225;29;1235;-84
2022/07/06 04:59:57;;;;;;;;;;;;;;;22.46;27.98;97717.31;4924046;29;1322;-84
2022/07/06 05:02:22;;;;;;;;;;;;;;;22.39;28.23;97719.63;4904727;29;872;-83
2022/07/06 05:04:48;;;;;;;;;;;;;;;22.52;28.14;97720.38;4901330;29;1157;-85
2022/07/06 05:07:14;;;;;;;;;;;;;;;22.59;27.95;97720.94;4922136;29;1973;-84
2022/07/06 05:09:40;;;;;;;;;;;;;;;22.63;27.63;97715.13;4908855;29;1335;-83
2022/07/06 05:12:07;;;;;;;;;;;;;;;22.55;27.90;97716.63;4893061;29;1332;-84
2022/07/06 05:14:33;;;;;;;;;;;;;;;22.51;27.88;97718.78;4861522;29;1495;-85
2022/07/06 05:16:59;;;;;;;;;;;;;;;22.46;28.09;97727.88;4852982;29;1253;-86
2022/07/06 05:19:24;;;;;;;;;;;;;;;22.61;27.95;97723.31;4900582;29;1352;-84
2022/07/06 05:21:50;;;;;;;;;;;;;;;22.63;27.76;97720.78;4901008;29;1236;-84
2022/07/06 05:24:16;;;;;;;;;;;;;;;22.64;27.94;97719.56;4900124;29;1303;-86
2022/07/06 05:26:41;;;;;;;;;;;;;;;22.54;28.02;97723.56;4888163;29;1923;-86
2022/07/06 05:29:08;;;;;;;;;;;;;;;22.49;28.27;97724.16;4882049;29;1315;-86
2022/07/06 05:31:34;;;;;;;;;;;;;;;22.59;28.02;97720.94;4900766;29;1358;-84
2022/07/06 05:34:00;;;;;;;;;;;;;;;22.61;27.84;97723.31;4923580;28;1340;-85
2022/07/06 05:36:26;;;;;;;;;;;;;;;22.58;27.84;97724.22;4967129;28;1365;-85
2022/07/06 05:38:53;;;;;;;;;;;;;;;22.56;28.09;97729.56;4889018;29;1244;-85
2022/07/06 05:41:21;;;;;;;;;;;;;;;22.41;28.21;97725.63;4917029;29;1150;-85
2022/07/06 05:43:46;;;;;;;;;;;;;;;22.58;28.28;97724.22;4926112;29;1326;-84
2022/07/06 05:46:12;;;;;;;;;;;;;;;22.56;28.32;97726.72;4918988;29;1985;-86
2022/07/06 05:51:23;;;;;;;;;;;;;;;22.60;28.16;97721.72;4860976;29;1304;-85
2022/07/06 05:53:48;;;;;;;;;;;;;;;22.58;28.39;97724.22;4901222;29;1366;-84
2022/07/06 05:56:14;;;;;;;;;;;;;;;22.54;28.33;97717.88;4908873;29;1176;-85
2022/07/06 05:58:40;;;;;;;;;;;;;;;22.45;28.47;97714.97;4909864;29;1386;-85
2022/07/06 06:01:07;;;;;;;;;;;;;;;22.62;28.27;97722.03;4850559;29;1312;-85
2022/07/06 06:03:34;;;;;;;;;;;;;;;22.65;28.49;97723.97;4851514;29;1273;-85
2022/07/06 06:06:02;;;;;;;;;;;;;;;22.69;28.50;97713.31;4849120;29;1982;-85
2022/07/06 06:08:28;;;;;;;;;;;;;;;22.79;28.25;97714.94;4863203;29;1377;-86
2022/07/06 06:10:54;;;;;;;;;;;;;;;22.94;28.15;97717.28;4854636;29;1285;-85
2022/07/06 06:13:22;;;;;;;;;;;;;;;22.69;28.10;97716.13;4856286;29;1293;-85
2022/07/06 06:15:47;;;;;;;;;;;;;;;22.78;28.21;97710.53;4855318;29;1323;-87
2022/07/06 06:18:17;;;;;;;;;;;;;;;22.71;28.19;97712.84;4885003;29;1307;-85
2022/07/06 06:20:42;;;;;;;;;;;;;;;22.86;28.24;97713.91;4892178;29;1359;-85
2022/07/06 06:23:08;;;;;;;;;;;;;;;22.67;28.25;97706.50;4910483;29;1231;-85
2022/07/06 06:25:36;;;;;;;;;;;;;;;22.60;28.33;97710.38;4907525;29;1390;-85
2022/07/06 06:28:02;;;;;;;;;;;;;;;22.71;28.38;97716.47;4908226;29;1977;-86
2022/07/06 06:30:28;;;;;;;;;;;;;;;22.63;28.22;97715.91;4894787;29;1391;-86
2022/07/06 06:33:11;;;;;;;;;;;;;;;22.67;28.33;97724.28;4889167;29;1400;-86
2022/07/06 06:35:37;;;;;;;;;;;;;;;22.58;28.64;97710.03;4889220;29;1249;-85
2022/07/06 06:38:03;;;;;;;;;;;;;;;22.61;28.75;97717.63;4890487;29;1379;-85
2022/07/06 06:40:28;;;;;;;;;;;;;;;22.71;28.17;97713.63;4890819;29;1434;-85
2022/07/06 06:42:54;;;;;;;;;;;;;;;22.66;28.54;97719.88;4880925;29;956;-85
2022/07/06 06:45:19;;;;;;;;;;;;;;;22.56;28.43;97710.50;4897898;29;903;-86
2022/07/06 06:47:44;;;;;;;;;;;;;;;22.47;28.71;97715.28;4899293;29;1915;-85
2022/07/06 06:50:10;;;;;;;;;;;;;;;22.52;28.57;97703.38;4909027;29;911;-86
2022/07/06 06:52:35;;;;;;;;;;;;;;;22.63;28.52;97710.22;4921407;29;949;-85
2022/07/06 06:55:01;;;;;;;;;;;;;;;22.61;28.67;97706.28;4937400;29;935;-85
2022/07/06 06:57:28;;;;;;;;;;;;;;;22.64;28.49;97713.88;4937310;29;976;-86
2022/07/06 06:59:54;;;;;;;;;;;;;;;22.71;28.48;97713.63;4921522;29;1029;-85
2022/07/06 07:02:19;;;;;;;;;;;;;;;22.68;28.47;97714.53;4970242;28;914;-85
2022/07/06 07:04:45;;;;;;;;;;;;;;;22.73;28.42;97708.28;4956006;28;1002;-85
2022/07/06 07:07:10;;;;;;;;;;;;;;;22.72;28.80;97709.53;4924256;29;1971;-86
2022/07/06 07:09:36;;;;;;;;;;;;;;;22.70;28.73;97720.56;4956450;28;996;-85
2022/07/06 07:12:01;;;;;;;;;;;;;;;22.72;28.72;97712.38;4956843;29;1285;-86
2022/07/06 07:14:27;;;;;;;;;;;;;;;22.83;28.46;97712.78;4956878;28;973;-86
2022/07/06 07:16:53;;;;;;;;;;;;;;;22.75;28.51;97711.47;4972679;28;960;-84
2022/07/06 07:19:18;;;;;;;;;;;;;;;22.80;28.64;97716.53;4956593;29;881;-82
2022/07/06 07:21:44;;;;;;;;;;;;;;;22.77;28.54;97714.63;4956382;29;920;-83
2022/07/06 07:24:09;;;;;;;;;;;;;;;22.79;28.38;97709.25;4956478;29;938;-83
2022/07/06 07:26:35;;;;;;;;;;;;;;;22.73;28.86;97716.78;4941715;29;1919;-84
2022/07/06 07:29:01;;;;;;;;;;;;;;;22.67;28.62;97720.66;4937235;29;796;-84
2022/07/06 07:31:26;;;;;;;;;;;;;;;22.65;28.72;97717.50;4937469;29;947;-84
2022/07/06 07:33:52;;;;;;;;;;;;;;;22.75;28.96;97722.81;4956258;29;959;-84
2022/07/06 07:36:17;;;;;;;;;;;;;;;22.79;28.50;97714.94;4913030;29;1098;-83
2022/07/06 07:38:42;;;;;;;;;;;;;;;22.66;28.86;97719.09;4879968;29;1205;-83
2022/07/06 07:41:11;;;;;;;;;;;;;;;22.84;28.94;97714.34;4879882;29;991;-83
2022/07/06 07:43:36;;;;;;;;;;;;;;;22.84;28.66;97720.03;4894264;29;969;-83
2022/07/06 07:46:01;;;;;;;;;;;;;;;22.71;28.79;97716.47;4864963;29;1991;-83
2022/07/06 07:48:28;;;;;;;;;;;;;;;22.90;28.53;97722.31;4880216;29;1077;-84
2022/07/06 07:50:54;;;;;;;;;;;;;;;22.87;28.81;97719.13;4885428;29;1258;-83
2022/07/06 07:53:19;;;;;;;;;;;;;;;22.77;29.02;97725.16;4866883;29;1063;-83
2022/07/06 07:55:45;;;;;;;;;;;;;;;22.70;29.07;97720.56;4862155;29;973;-83
2022/07/06 07:58:10;;;;;;;;;;;;;;;22.86;28.88;97722.41;4899139;29;1141;-84
2022/07/06 08:00:36;;;;;;;;;;;;;;;22.64;29.03;97725.22;4899080;29;994;-83
2022/07/06 08:03:01;;;;;;;;;;;;;;;22.63;29.23;97718.75;4899252;29;1063;-84
2022/07/06 08:05:26;;;;;;;;;;;;;;;22.83;28.72;97729.78;4834659;29;977;-84
2022/07/06 08:07:52;;;;;;;;;;;;;;;22.75;29.10;97722.81;4825187;29;1915;-84
2022/07/06 08:10:18;;;;;;;;;;;;;;;22.77;29.12;97731.63;4861586;29;1072;-83
2022/07/06 08:12:44;;;;;;;;;;;;;;;22.82;28.76;97722.53;4861745;29;938;-83
2022/07/06 08:15:09;;;;;;;;;;;;;;;22.67;29.29;97721.47;4861959;29;798;-84
2022/07/06 08:17:35;;;;;;;;;;;;;;;22.91;28.95;97730.38;4907924;29;1198;-84
2022/07/06 08:20:01;;;;;;;;;;;;;;;22.82;29.00;97744.44;4917861;29;821;-83
2022/07/06 08:22:26;;;;;;;;;;;;;;;22.91;28.76;97741.72;4931620;29;872;-83
2022/07/06 08:24:52;;;;;;;;;;;;;;;22.83;28.83;97741.13;4936933;29;911;-83
2022/07/06 08:27:17;;;;;;;;;;;;;;;22.70;29.36;97748.91;4898679;29;1906;-83
2022/07/06 08:29:43;;;;;;;;;;;;;;;22.73;29.42;97742.31;4899147;29;902;-83
2022/07/06 08:35:43;;;;;;;;;;;;;;;22.82;28.94;97739.56;4895091;29;851;-84
2022/07/06 08:38:09;;;;;;;;;;;;;;;22.90;28.89;97734.47;4880667;29;829;-83
2022/07/06 08:40:37;;;;;;;;;;;;;;;22.93;28.88;97739.19;4880112;29;901;-83
2022/07/06 08:43:03;;;;;;;;;;;;;;;22.77;29.09;97731.63;4880094;29;825;-83
2022/07/06 08:45:29;;;;;;;;;;;;;;;22.85;29.09;97738.66;4899306;29;1101;-84
2022/07/06 08:47:54;;;;;;;;;;;;;;;22.77;29.41;97734.47;4941191;28;1980;-83
2022/07/06 08:50:20;;;;;;;;;;;;;;;22.74;29.40;97738.25;4980178;28;977;-83
2022/07/06 08:52:47;;;;;;;;;;;;;;;22.82;29.32;97733.88;4959235;29;888;-83
2022/07/06 08:55:12;;;;;;;;;;;;;;;22.66;29.53;97736.91;4959577;29;917;-84
2022/07/06 08:57:40;;;;;;;;;;;;;;;22.84;29.22;97730.59;4958801;29;1023;-83
2022/07/06 09:00:09;;;;;;;;;;;;;;;23.00;28.80;97740.97;4959205;28;854;-84
2022/07/06 09:02:34;;;;;;;;;;;;;;;22.80;29.15;97732.78;4958692;29;883;-84
2022/07/06 09:05:00;;;;;;;;;;;;;;;22.92;29.10;97731.94;4958778;29;1214;-85
2022/07/06 09:07:26;;;;;;;;;;;;;;;22.90;29.08;97722.31;4920417;29;1907;-84
2022/07/06 09:09:52;;;;;;;;;;;;;;;22.99;29.09;97730.88;4920471;29;967;-85
2022/07/06 09:12:17;;;;;;;;;;;;;;;22.92;29.35;97723.44;4920309;29;1120;-84
2022/07/06 09:14:43;;;;;;;;;;;;;;;22.90;29.37;97722.31;4939123;29;1250;-85
2022/07/06 09:17:08;;;;;;;;;;;;;;;22.86;29.47;97722.41;4901400;29;1240;-84
2022/07/06 09:19:34;;;;;;;;;;;;;;;22.90;29.47;97725.13;4901316;29;820;-84
2022/07/06 09:22:00;;;;;;;;;;;;;;;22.74;29.20;97720.41;4859474;29;941;-83
2022/07/06 09:24:26;;;;;;;;;;;;;;;23.02;29.20;97721.47;4828318;29;984;-83
2022/07/06 09:26:54;;;;;;;;;;;;;;;22.97;28.95;97719.22;4809065;29;1976;-84
2022/07/06 09:29:24;;;;;;;;;;;;;;;22.91;29.46;97721.84;4823054;29;893;-83
2022/07/06 09:31:57;;;;;;;;;;;;;;;22.85;29.24;97721.63;4827038;29;902;-85
2022/07/06 09:34:24;;;;;;;;;;;;;;;23.04;29.11;97721.78;4826805;29;854;-84
2022/07/06 09:36:49;;;;;;;;;;;;;;;22.86;29.35;97717.53;4842694;29;972;-85
2022/07/06 09:39:22;;;;;;;;;;;;;;;22.82;29.28;97722.53;4897601;29;1271;-85
2022/07/06 09:41:48;;;;;;;;;;;;;;;22.98;29.22;97709.44;4881663;29;1035;-85
2022/07/06 09:44:18;;;;;;;;;;;;;;;22.91;29.31;97707.69;4913574;29;932;-85
2022/07/06 09:46:45;;;;;;;;;;;;;;;22.84;29.11;97720.03;4918568;29;1907;-84
2022/07/06 09:49:10;;;;;;;;;;;;;;;22.87;29.52;97713.44;4904872;29;1098;-85
2022/07/06 09:51:37;;;;;;;;;;;;;;;22.97;29.18;97716.38;4920029;29;913;-85
2022/07/06 09:54:06;;;;;;;;;;;;;;;22.80;29.49;97708.03;4919732;29;941;-85
2022/07/06 09:56:37;;;;;;;;;;;;;;;22.87;29.41;97707.75;4920073;29;1143;-85
2022/07/06 09:59:09;;;;;;;;;;;;;;;22.88;29.34;97712.22;4919970;29;932;-85
2022/07/06 10:01:38;;;;;;;;;;;;;;;22.79;29.43;97700.75;4938576;29;918;-84
2022/07/06 10:04:05;;;;;;;;;;;;;;;22.68;29.54;97706.03;4900862;29;902;-84
2022/07/06 10:06:30;;;;;;;;;;;;;;;22.96;29.17;97709.13;4885319;29;1899;-84
2022/07/06 10:08:56;;;;;;;;;;;;;;;22.80;29.26;97702.38;4882030;29;938;-85
2022/07/06 10:11:21;;;;;;;;;;;;;;;22.94;29.16;97700.28;4846492;29;929;-85
2022/07/06 10:13:47;;;;;;;;;;;;;;;23.03;29.02;97703.19;4863504;29;947;-84
2022/07/06 10:16:12;;;;;;;;;;;;;;;22.97;29.04;97705.81;4883679;29;843;-84
2022/07/06 10:18:38;;;;;;;;;;;;;;;22.93;29.05;97708.00;4919315;29;1277;-84
2022/07/06 10:21:03;;;;;;;;;;;;;;;22.83;29.25;97701.41;4900621;29;947;-85
2022/07/06 10:23:29;;;;;;;;;;;;;;;22.99;29.16;97702.50;4863309;29;1139;-84
2022/07/06 10:25:55;;;;;;;;;;;;;;;23.04;29.01;97699.09;4847939;29;1257;-84
2022/07/06 10:28:20;;;;;;;;;;;;;;;23.01;29.25;97700.03;4863226;29;1997;-85
2022/07/06 10:30:46;;;;;;;;;;;;;;;23.00;29.35;97699.25;4863238;29;894;-84
2022/07/06 10:33:11;;;;;;;;;;;;;;;22.97;29.13;97693.69;4826565;29;932;-84
2022/07/06 10:35:39;;;;;;;;;;;;;;;22.95;29.18;97696.19;4839316;29;888;-84
2022/07/06 10:38:07;;;;;;;;;;;;;;;23.05;29.23;97707.16;4829778;29;864;-85
2022/07/06 10:43:17;;;;;;;;;;;;;;;22.91;29.56;97702.00;4863054;29;932;-84
2022/07/06 10:49:17;;;;;;;;;;;;;;;22.76;29.71;97690.34;4826607;29;855;-85
2022/07/06 10:51:43;;;;;;;;;;;;;;;23.01;29.16;97685.84;4844769;29;1174;-85
2022/07/06 10:54:08;;;;;;;;;;;;;;;22.69;29.86;97686.97;4850751;29;972;-84
2022/07/06 10:56:36;;;;;;;;;;;;;;;22.94;29.25;97684.03;4874487;29;1201;-84
2022/07/06 10:59:02;;;;;;;;;;;;;;;22.96;29.45;97683.59;4894275;29;895;-85
2022/07/06 11:01:29;;;;;;;;;;;;;;;22.98;29.17;97681.88;4881125;29;972;-85
2022/07/06 11:03:57;;;;;;;;;;;;;;;23.06;29.10;97676.72;4888646;29;1119;-84
2022/07/06 11:06:23;;;;;;;;;;;;;;;23.04;29.17;97676.38;4885869;29;1981;-84
2022/07/06 11:08:52;;;;;;;;;;;;;;;22.96;29.48;97675.09;4862242;29;965;-85
2022/07/06 11:11:33;;;;;;;;;;;;;;;22.76;29.79;97673.31;4844468;29;1243;-85
2022/07/06 11:14:11;;;;;;;;;;;;;;;22.79;29.58;97666.72;4809500;29;988;-84
2022/07/06 11:16:47;;;;;;;;;;;;;;;22.87;29.57;97668.03;4815485;29;947;-85
2022/07/06 11:19:23;;;;;;;;;;;;;;;22.75;29.61;97677.44;4828312;29;944;-85
2022/07/06 11:21:52;;;;;;;;;;;;;;;22.96;29.38;97658.06;4843525;29;1309;-85
2022/07/06 11:24:18;;;;;;;;;;;;;;;22.98;29.46;97661.22;4808888;29;1031;-85
2022/07/06 11:27:02;;;;;;;;;;;;;;;23.03;29.40;97658.56;4851643;29;1907;-84
2022/07/06 11:29:28;;;;;;;;;;;;;;;23.13;29.37;97660.22;4773930;29;928;-84
2022/07/06 11:31:54;;;;;;;;;;;;;;;22.94;29.41;97654.88;4807323;29;1214;-84
2022/07/06 11:34:26;;;;;;;;;;;;;;;22.95;29.38;97656.44;4811661;29;899;-84
2022/07/06 11:37:10;;;;;;;;;;;;;;;23.00;29.43;97653.03;4862270;29;1041;-84
2022/07/06 11:39:37;;;;;;;;;;;;;;;22.85;29.55;97652.75;4873431;29;1205;-84
2022/07/06 11:45:37;;;;;;;;;;;;;;;22.90;29.66;97651.38;4880561;29;969;-85
2022/07/06 11:48:09;;;;;;;;;;;;;;;22.92;29.25;97657.41;4880151;29;1956;-85
2022/07/06 11:50:34;;;;;;;;;;;;;;;22.88;29.50;97652.63;4880536;29;974;-84
2022/07/06 11:53:00;;;;;;;;;;;;;;;23.07;29.12;97658.44;4872401;29;972;-85
2022/07/06 11:55:27;;;;;;;;;;;;;;;22.77;29.76;97652.22;4870735;29;833;-85
2022/07/06 11:57:56;;;;;;;;;;;;;;;23.07;29.30;97636.53;4861891;29;934;-84
2022/07/06 12:00:21;;;;;;;;;;;;;;;22.94;29.18;97646.38;4879965;29;898;-84
2022/07/06 12:03:02;;;;;;;;;;;;;;;23.01;29.29;97646.13;4863656;29;1073;-85
2022/07/06 12:05:28;;;;;;;;;;;;;;;23.05;29.12;97639.06;4861226;29;994;-84
2022/07/06 12:08:06;;;;;;;;;;;;;;;22.92;29.52;97640.38;4833101;29;1966;-85
2022/07/06 12:10:37;;;;;;;;;;;;;;;23.06;29.12;97648.34;4869828;29;931;-84
2022/07/06 12:13:03;;;;;;;;;;;;;;;23.10;29.25;97643.31;4879810;29;847;-84
2022/07/06 12:15:29;;;;;;;;;;;;;;;22.86;29.50;97640.94;4879869;29;877;-84
2022/07/06 12:17:54;;;;;;;;;;;;;;;22.97;29.35;97636.94;4955339;28;1321;-84
2022/07/06 12:20:20;;;;;;;;;;;;;;;23.10;29.35;97629.13;4988223;28;886;-84
2022/07/06 12:22:45;;;;;;;;;;;;;;;23.04;29.12;97625.31;4937282;28;879;-84
2022/07/06 12:25:10;;;;;;;;;;;;;;;22.97;29.36;97625.59;4940035;29;1228;-84
2022/07/06 12:27:36;;;;;;;;;;;;;;;23.07;29.17;97630.84;4902736;29;1903;-84
2022/07/06 12:30:10;;;;;;;;;;;;;;;23.04;29.26;97619.63;4902635;29;900;-84
2022/07/06 12:32:36;;;;;;;;;;;;;;;22.96;29.58;97618.34;4902377;29;1008;-84
2022/07/06 12:35:04;;;;;;;;;;;;;;;22.88;29.51;97618.59;4940440;29;1320;-84
2022/07/06 12:37:30;;;;;;;;;;;;;;;22.96;29.54;97607.78;4922671;29;1216;-85
2022/07/06 12:39:55;;;;;;;;;;;;;;;22.85;29.93;97602.47;4902406;29;1359;-84
2022/07/06 12:42:21;;;;;;;;;;;;;;;23.04;29.35;97608.28;4870993;29;960;-85
2022/07/06 12:44:48;;;;;;;;;;;;;;;22.94;29.39;97603.81;4880317;29;971;-85
2022/07/06 12:47:16;;;;;;;;;;;;;;;23.12;29.25;97603.94;4864902;29;1907;-85
2022/07/06 12:49:42;;;;;;;;;;;;;;;22.86;29.54;97603.28;4868220;29;920;-85
2022/07/06 12:52:08;;;;;;;;;;;;;;;22.96;29.43;97601.31;4864877;29;836;-84
2022/07/06 12:54:34;;;;;;;;;;;;;;;22.83;29.72;97602.13;4865084;29;1004;-85
2022/07/06 12:57:04;;;;;;;;;;;;;;;22.96;29.47;97601.31;4895683;29;1295;-84
2022/07/06 12:59:30;;;;;;;;;;;;;;;22.96;29.43;97601.31;4921067;29;1113;-84
2022/07/06 13:01:56;;;;;;;;;;;;;;;22.93;29.75;97591.66;4955230;29;905;-84
2022/07/06 13:04:25;;;;;;;;;;;;;;;23.01;29.38;97597.88;4883227;29;917;-84
2022/07/06 13:06:50;;;;;;;;;;;;;;;23.00;29.30;97591.41;4943210;29;1968;-85
2022/07/06 13:09:16;;;;;;;;;;;;;;;22.99;29.52;97589.81;4958672;29;927;-84
2022/07/06 13:11:42;;;;;;;;;;;;;;;22.96;29.41;97589.97;4939426;29;917;-84
2022/07/06 13:14:08;;;;;;;;;;;;;;;23.08;29.36;97591.91;4939089;29;1389;-82
2022/07/06 13:16:34;;;;;;;;;;;;;;;23.01;29.40;97598.66;4928010;29;1378;-84
2022/07/06 13:19:00;;;;;;;;;;;;;;;22.86;29.80;97598.38;4911680;29;1407;-84
2022/07/06 13:21:25;;;;;;;;;;;;;;;23.09;29.20;97593.50;4907083;29;1501;-83